KPLU

Pierce County - Thun Field Airport

Puyallup, Washington, USA
METAR KPLU 231455Z AUTO 00000KT 10SM CLR 17/13 A2984 RMK AO2
Observed Flight Rules
May-23 @ 14:55 UTC (13 minutes ago) Visual Flight Rules
Visibility Clouds
10 miles
  • Clear skies
Temperatures Readings
Current 17°C / 63°F
Dewpoint 13°C / 55°F
Humidity 77%
Altimeter 29.84" Hg
Pressure 1010 hPa
Elevation 164
METAR KPLU 231455Z AUTO 00000KT 10SM CLR 17/13 A2984 RMK AO2
Observed Flight Rules
May-23 @ 14:55 UTC
(13 minutes ago)
VFR
Clouds
  • Clear skies
Temperature Dewpoint
17°C / 63°F 13°C / 55°F
Humidity Altimeter Pressure
77% 29.84" Hg 1010 hPa